Time;durP1;ratioP1;P1;durP2;ratioP2;P2;SDS_P1;SDS_P2;PMS_P1;PMS_P2;Temp;Humidity;BMP_temperature;BMP_pressure;BME280_temperature;BME280_humidity;BME280_pressure;Samples;Min_cycle;Max_cycle;Signal;HPM_P1;HPM_P2
2023/07/22 00:01:46;;;;;;;4.30;3.50;;;;;;;16.02;83.30;100421.08;107980;1256;72408;-80
2023/07/22 00:04:13;;;;;;;4.00;3.30;;;;;;;16.02;83.17;100418.27;107988;1256;61940;-80
2023/07/22 00:06:40;;;;;;;5.40;3.30;;;;;;;16.00;83.07;100416.92;108048;1256;60414;-79
2023/07/22 00:09:09;;;;;;;4.00;3.20;;;;;;;15.93;83.07;100418.70;107992;1259;73929;-80
2023/07/22 00:11:37;;;;;;;6.50;3.30;;;;;;;15.88;83.31;100418.02;108039;1256;73225;-79
2023/07/22 00:14:09;;;;;;;6.60;3.30;;;;;;;15.89;83.46;100411.11;107991;1256;72728;-82
2023/07/22 00:16:37;;;;;;;7.30;3.70;;;;;;;15.88;83.63;100413.14;107947;1256;62301;-80
2023/07/22 00:19:07;;;;;;;4.90;3.40;;;;;;;15.84;83.78;100409.39;107931;1255;60371;-79
2023/07/22 00:21:36;;;;;;;4.80;3.40;;;;;;;15.81;84.02;100402.36;107976;1256;73841;-79
2023/07/22 00:24:04;;;;;;;4.40;3.20;;;;;;;15.78;84.22;100396.49;107958;1256;71552;-78
2023/07/22 00:26:31;;;;;;;4.70;3.30;;;;;;;15.70;84.46;100397.27;107974;1256;72491;-78
2023/07/22 00:28:58;;;;;;;4.20;2.90;;;;;;;15.62;84.80;100392.69;107981;1257;61898;-79
2023/07/22 00:31:27;;;;;;;4.20;3.10;;;;;;;15.50;85.04;100383.73;107990;1257;59056;-79
2023/07/22 00:33:54;;;;;;;4.60;3.20;;;;;;;15.37;85.33;100383.56;107841;1256;74784;-78
2023/07/22 00:36:21;;;;;;;4.70;2.90;;;;;;;15.28;85.76;100384.62;107947;1257;71784;-78
2023/07/22 00:38:49;;;;;;;3.60;2.80;;;;;;;15.21;86.08;100379.39;107937;1256;71546;-79
2023/07/22 00:41:16;;;;;;;5.40;3.50;;;;;;;15.14;86.33;100376.48;107827;1256;61871;-78
2023/07/22 00:43:44;;;;;;;4.70;3.10;;;;;;;15.11;86.66;100369.63;108027;1256;60316;-79
2023/07/22 00:46:11;;;;;;;5.90;3.10;;;;;;;15.11;86.89;100364.84;107870;1257;73889;-79
2023/07/22 00:48:38;;;;;;;6.00;4.10;;;;;;;15.11;87.22;100363.06;108042;1256;72929;-78
2023/07/22 00:51:06;;;;;;;5.00;3.60;;;;;;;15.19;87.41;100363.80;107984;1256;70213;-79
2023/07/22 00:53:35;;;;;;;5.70;3.60;;;;;;;15.19;87.52;100361.92;107748;1255;61833;-79
2023/07/22 00:56:02;;;;;;;6.50;3.60;;;;;;;15.21;87.84;100364.81;108018;1255;61070;-79
2023/07/22 00:58:30;;;;;;;6.40;3.80;;;;;;;15.29;88.09;100365.55;107980;1256;73789;-79
2023/07/22 01:00:56;;;;;;;6.10;3.80;;;;;;;15.34;88.08;100357.02;107889;1257;72723;-78
2023/07/22 01:03:25;;;;;;;5.30;4.10;;;;;;;15.38;88.10;100355.35;107959;1257;72707;-78
2023/07/22 01:05:52;;;;;;;5.60;3.40;;;;;;;15.39;88.06;100356.17;107939;1256;61869;-79
2023/07/22 01:08:20;;;;;;;5.60;3.60;;;;;;;15.38;88.21;100356.27;107755;1255;60346;-79
2023/07/22 01:10:48;;;;;;;5.10;3.70;;;;;;;15.39;88.48;100360.55;108043;1256;74937;-80
2023/07/22 01:13:15;;;;;;;4.80;3.50;;;;;;;15.42;88.64;100361.09;107991;1255;72655;-78
2023/07/22 01:15:42;;;;;;;5.50;3.90;;;;;;;15.45;88.76;100358.67;107934;1256;72557;-78
2023/07/22 01:18:09;;;;;;;6.40;3.80;;;;;;;15.49;88.87;100359.95;107906;1255;61713;-79
2023/07/22 01:20:37;;;;;;;5.30;3.40;;;;;;;15.54;88.94;100358.30;107770;1256;60409;-78
2023/07/22 01:23:04;;;;;;;7.40;3.90;;;;;;;15.60;89.10;100361.65;107841;1257;73734;-79
2023/07/22 01:25:30;;;;;;;5.40;4.10;;;;;;;15.63;89.22;100362.61;107681;1256;72766;-78
2023/07/22 01:28:01;;;;;;;5.10;3.70;;;;;;;15.69;89.26;100365.03;107994;1257;72494;-78
2023/07/22 01:30:28;;;;;;;5.00;3.50;;;;;;;15.77;89.29;100365.94;107821;1257;61697;-79
2023/07/22 01:32:55;;;;;;;4.90;3.70;;;;;;;15.84;89.11;100369.63;107942;1256;60413;-79
2023/07/22 01:35:23;;;;;;;4.60;3.50;;;;;;;15.90;88.94;100372.64;108043;1256;73726;-79
2023/07/22 01:37:52;;;;;;;4.70;3.60;;;;;;;15.94;88.78;100373.64;107994;1256;72940;-79
2023/07/22 01:40:19;;;;;;;5.50;4.00;;;;;;;16.10;88.17;100366.88;107984;1259;72613;-80
2023/07/22 01:42:47;;;;;;;5.20;3.90;;;;;;;16.41;86.59;100371.13;107933;1256;61825;-80
2023/07/22 01:45:15;;;;;;;6.40;3.70;;;;;;;16.49;85.76;100369.86;108026;1257;60281;-80
2023/07/22 01:47:42;;;;;;;4.90;4.10;;;;;;;16.51;85.25;100364.89;107956;1256;73703;-79
2023/07/22 01:50:10;;;;;;;6.50;3.90;;;;;;;16.52;84.69;100369.84;108011;1256;72519;-79
2023/07/22 01:52:37;;;;;;;7.10;3.90;;;;;;;16.55;84.40;100366.50;107857;1256;72806;-80
2023/07/22 01:55:08;;;;;;;5.70;3.90;;;;;;;16.59;84.10;100369.10;107723;1257;66411;-80
2023/07/22 01:57:35;;;;;;;7.40;4.40;;;;;;;16.62;83.81;100366.29;107938;1256;60450;-79
2023/07/22 02:00:05;;;;;;;5.60;4.00;;;;;;;16.64;83.57;100364.02;107706;1262;73934;-79
2023/07/22 02:02:40;;;;;;;5.10;4.00;;;;;;;16.62;83.10;100364.41;108000;1257;72806;-77
2023/07/22 02:05:09;;;;;;;4.80;3.80;;;;;;;16.53;83.07;100360.48;107999;1257;72532;-79
2023/07/22 02:07:38;;;;;;;7.10;4.00;;;;;;;16.50;83.18;100366.77;108015;1257;62165;-79
2023/07/22 02:10:06;;;;;;;5.20;3.70;;;;;;;16.50;83.31;100369.33;107637;1256;60303;-80
2023/07/22 02:12:34;;;;;;;6.40;3.80;;;;;;;16.52;83.28;100370.87;107972;1255;74001;-79
2023/07/22 02:15:02;;;;;;;4.90;3.40;;;;;;;16.52;83.18;100370.85;108027;1256;72695;-78
2023/07/22 02:17:30;;;;;;;5.30;3.70;;;;;;;16.52;83.05;100371.63;107972;1256;72465;-79
2023/07/22 02:19:57;;;;;;;5.00;3.50;;;;;;;16.52;82.86;100377.02;107719;1257;60538;-79
2023/07/22 02:22:24;;;;;;;5.50;3.60;;;;;;;16.54;82.90;100371.89;107947;1256;60325;-80
2023/07/22 02:24:51;;;;;;;4.70;3.70;;;;;;;16.49;82.65;100372.80;107949;1257;74581;-80
2023/07/22 02:27:18;;;;;;;7.00;3.40;;;;;;;16.37;82.71;100377.95;108034;1257;72734;-80
2023/07/22 02:29:45;;;;;;;4.30;3.10;;;;;;;16.29;82.91;100385.66;107995;1257;71449;-79
2023/07/22 02:32:11;;;;;;;4.90;3.80;;;;;;;16.23;83.18;100380.54;107990;1255;61874;-80
2023/07/22 02:34:38;;;;;;;5.50;3.70;;;;;;;16.18;83.59;100384.13;107986;1256;60376;-78
2023/07/22 02:37:05;;;;;;;4.90;3.30;;;;;;;16.15;83.94;100381.01;108001;1256;73855;-79
2023/07/22 02:39:32;;;;;;;5.40;3.70;;;;;;;16.14;84.36;100377.36;107996;1256;72611;-79
2023/07/22 02:42:00;;;;;;;4.90;4.00;;;;;;;16.13;84.85;100374.11;107927;1255;72643;-80
2023/07/22 02:44:27;;;;;;;5.30;4.20;;;;;;;16.08;85.56;100369.23;107984;1256;61771;-79
2023/07/22 02:46:54;;;;;;;5.50;4.10;;;;;;;16.12;86.05;100371.31;107747;1256;60329;-80
2023/07/22 02:49:21;;;;;;;6.70;4.10;;;;;;;16.19;86.48;100374.59;108020;1257;75064;-80
2023/07/22 02:51:48;;;;;;;6.60;3.90;;;;;;;16.31;86.62;100374.89;108015;1256;73884;-79
2023/07/22 02:54:29;;;;;;;5.10;3.80;;;;;;;16.06;87.72;100378.39;107984;1257;72495;-80
2023/07/22 02:56:56;;;;;;;6.90;4.10;;;;;;;16.02;88.86;100381.52;107805;1258;62048;-79
2023/07/22 02:59:22;;;;;;;5.90;4.50;;;;;;;16.11;89.58;100381.09;107953;1256;60202;-80
2023/07/22 03:01:49;;;;;;;6.30;4.10;;;;;;;16.24;89.97;100386.02;107931;1257;73681;-79
2023/07/22 03:04:16;;;;;;;5.30;4.00;;;;;;;16.37;90.24;100384.48;107931;1259;70851;-79
2023/07/22 03:06:43;;;;;;;5.70;4.10;;;;;;;16.51;90.51;100380.70;107859;1256;71133;-81
2023/07/22 03:09:11;;;;;;;5.00;4.10;;;;;;;16.63;90.38;100383.37;107935;1256;61940;-81
2023/07/22 03:11:38;;;;;;;6.00;4.20;;;;;;;16.74;90.26;100380.41;107800;1257;60556;-80
2023/07/22 03:14:08;;;;;;;5.60;3.80;;;;;;;17.13;89.02;100379.13;107912;1256;74082;-79
2023/07/22 03:16:35;;;;;;;5.50;4.10;;;;;;;17.23;88.20;100370.70;107975;1257;72867;-79
2023/07/22 03:19:03;;;;;;;4.60;4.00;;;;;;;17.28;87.75;100371.77;107984;1256;72758;-80
2023/07/22 03:21:30;;;;;;;7.10;4.20;;;;;;;17.31;87.46;100369.05;107681;1257;61695;-80
2023/07/22 03:23:57;;;;;;;5.20;4.20;;;;;;;17.30;87.16;100368.84;107979;1256;60420;-80
2023/07/22 03:26:25;;;;;;;5.10;4.20;;;;;;;17.30;87.04;100367.66;107761;1256;73860;-79
2023/07/22 03:28:53;;;;;;;5.20;4.20;;;;;;;17.29;86.90;100364.49;107950;1256;72704;-78
2023/07/22 03:31:20;;;;;;;5.90;4.50;;;;;;;17.28;86.82;100361.30;107998;1259;72640;-80
2023/07/22 03:33:48;;;;;;;7.40;4.50;;;;;;;17.29;86.83;100357.70;107928;1256;61055;-80
2023/07/22 03:36:15;;;;;;;5.40;4.60;;;;;;;17.30;86.79;100354.69;107736;1256;60523;-79
2023/07/22 03:38:42;;;;;;;6.70;4.30;;;;;;;17.33;86.73;100354.80;107987;1256;73600;-78
2023/07/22 03:41:09;;;;;;;6.80;4.50;;;;;;;17.37;86.60;100348.76;107990;1257;71806;-80
2023/07/22 03:43:36;;;;;;;5.30;4.10;;;;;;;17.42;86.56;100348.52;108025;1259;72506;-80
2023/07/22 03:46:03;;;;;;;5.90;4.10;;;;;;;17.50;86.62;100352.22;107972;1257;61891;-80
2023/07/22 03:48:30;;;;;;;5.80;4.60;;;;;;;17.62;86.56;100356.52;108002;1256;60316;-79
2023/07/22 03:50:57;;;;;;;6.00;4.30;;;;;;;17.75;86.43;100352.15;107992;1257;73534;-79
2023/07/22 03:53:43;;;;;;;6.10;4.40;;;;;;;17.84;86.15;100345.86;107997;1256;73038;-80
2023/07/22 03:56:10;;;;;;;5.60;3.70;;;;;;;17.92;85.83;100339.60;108047;1257;73363;-80
2023/07/22 03:58:37;;;;;;;7.50;4.20;;;;;;;17.99;85.43;100344.73;108022;1257;61857;-79
2023/07/22 04:01:04;;;;;;;9.40;4.20;;;;;;;18.04;85.12;100341.18;108045;1257;60381;-81
2023/07/22 04:03:34;;;;;;;5.20;3.70;;;;;;;18.12;84.76;100345.56;108009;1257;73997;-79
2023/07/22 04:06:01;;;;;;;5.80;4.10;;;;;;;18.21;84.52;100347.16;108031;1256;71831;-81
2023/07/22 04:08:29;;;;;;;6.00;4.70;;;;;;;18.30;84.15;100349.99;108014;1259;72572;-79
2023/07/22 04:10:57;;;;;;;5.30;4.20;;;;;;;18.40;83.76;100354.09;107993;1256;63248;-78
2023/07/22 04:13:25;;;;;;;5.70;4.20;;;;;;;18.50;83.33;100356.12;107994;1256;60385;-80
2023/07/22 04:15:52;;;;;;;7.10;4.50;;;;;;;18.63;83.08;100356.08;107762;1256;73839;-79
2023/07/22 04:18:20;;;;;;;5.20;4.10;;;;;;;18.74;82.85;100352.39;107986;1255;72666;-78
2023/07/22 04:20:50;;;;;;;5.50;4.10;;;;;;;18.87;82.53;100346.02;107767;1256;72719;-80
2023/07/22 04:23:17;;;;;;;6.70;4.20;;;;;;;18.95;82.03;100342.39;107943;1257;60615;-80
2023/07/22 04:25:45;;;;;;;6.10;4.10;;;;;;;19.02;81.81;100345.92;107923;1256;60355;-79
2023/07/22 04:28:11;;;;;;;4.70;3.50;;;;;;;19.09;81.60;100347.40;107987;1255;72458;-79
2023/07/22 04:30:39;;;;;;;5.20;3.50;;;;;;;19.17;80.99;100352.07;107925;1256;72811;-79
2023/07/22 04:33:10;;;;;;;5.90;3.60;;;;;;;19.29;80.54;100348.34;107928;1256;71991;-80
2023/07/22 04:35:38;;;;;;;4.50;3.60;;;;;;;19.40;80.20;100346.05;107970;1257;62879;-79
2023/07/22 04:38:05;;;;;;;5.80;3.50;;;;;;;19.52;79.69;100341.51;108014;1257;61427;-81
2023/07/22 04:40:33;;;;;;;5.60;3.90;;;;;;;19.60;79.20;100341.34;107992;1257;72779;-79
2023/07/22 04:43:03;;;;;;;4.80;4.00;;;;;;;19.67;78.79;100344.91;107915;1257;72660;-80
2023/07/22 04:45:30;;;;;;;5.10;3.70;;;;;;;19.76;78.48;100352.38;108017;1255;72520;-77
2023/07/22 04:47:57;;;;;;;4.60;3.70;;;;;;;19.85;78.04;100353.95;107942;1256;62001;-78
2023/07/22 04:50:24;;;;;;;5.80;4.40;;;;;;;19.94;77.74;100353.54;107979;1256;60295;-79
2023/07/22 04:52:51;;;;;;;6.40;3.50;;;;;;;20.01;77.23;100351.72;107944;1256;73623;-79
2023/07/22 04:55:19;;;;;;;5.90;3.50;;;;;;;20.11;76.97;100347.95;108002;1256;73826;-79
2023/07/22 04:57:46;;;;;;;4.50;3.50;;;;;;;20.18;76.62;100347.59;107947;1256;72691;-83
2023/07/22 05:00:18;;;;;;;4.50;3.60;;;;;;;20.24;76.35;100351.87;108005;1257;61196;-80
2023/07/22 05:02:49;;;;;;;5.80;3.80;;;;;;;20.28;76.14;100351.58;107869;1256;59050;-81
2023/07/22 05:05:16;;;;;;;5.20;3.80;;;;;;;20.30;75.83;100351.34;107969;1256;73785;-78
2023/07/22 05:07:45;;;;;;;4.70;3.50;;;;;;;20.33;75.75;100354.38;107886;1257;72609;-80
2023/07/22 05:10:13;;;;;;;4.30;3.60;;;;;;;20.36;75.48;100353.19;108035;1256;72705;-80
2023/07/22 05:12:40;;;;;;;4.90;3.60;;;;;;;20.38;75.11;100350.59;107884;1256;62022;-79
2023/07/22 05:15:10;;;;;;;6.90;3.10;;;;;;;20.41;74.63;100357.42;107969;1256;61178;-79
2023/07/22 05:17:37;;;;;;;5.30;2.80;;;;;;;20.42;74.04;100355.52;107807;1256;72797;-79
2023/07/22 05:20:14;;;;;;;5.20;2.70;;;;;;;20.42;73.02;100350.70;108022;1255;73958;-79
2023/07/22 05:22:41;;;;;;;3.50;2.40;;;;;;;20.40;71.92;100348.55;107987;1257;72862;-80
2023/07/22 05:25:09;;;;;;;3.20;2.20;;;;;;;20.34;70.56;100337.40;107981;1256;63331;-79
2023/07/22 05:27:36;;;;;;;3.40;2.10;;;;;;;20.27;69.41;100341.91;107986;1257;61527;-79
2023/07/22 05:30:07;;;;;;;2.90;2.20;;;;;;;20.20;68.66;100335.36;107947;1257;73838;-79
2023/07/22 05:32:46;;;;;;;4.80;2.50;;;;;;;20.17;68.14;100331.83;107994;1256;72959;-79
2023/07/22 05:35:13;;;;;;;3.60;2.40;;;;;;;20.17;68.03;100332.13;107966;1256;72432;-80
2023/07/22 05:37:40;;;;;;;3.90;2.80;;;;;;;20.17;68.26;100329.91;107902;1256;60423;-80
2023/07/22 05:40:09;;;;;;;3.70;2.60;;;;;;;20.13;68.49;100331.23;108008;1256;59996;-79
2023/07/22 05:42:36;;;;;;;4.00;2.90;;;;;;;20.08;68.88;100329.20;107977;1257;73688;-80
2023/07/22 05:45:03;;;;;;;4.70;3.50;;;;;;;20.03;69.73;100331.80;107995;1257;72727;-80
2023/07/22 05:47:31;;;;;;;3.80;3.00;;;;;;;20.01;70.41;100333.29;107931;1256;72521;-80
2023/07/22 05:49:58;;;;;;;4.50;3.50;;;;;;;20.00;71.11;100337.27;107985;1259;62115;-79
2023/07/22 05:52:25;;;;;;;4.90;3.00;;;;;;;19.98;71.82;100345.45;107981;1257;60303;-80
2023/07/22 05:54:52;;;;;;;4.30;3.20;;;;;;;19.98;72.45;100347.44;107970;1257;73675;-79
2023/07/22 05:57:24;;;;;;;4.10;2.40;;;;;;;19.99;72.92;100347.98;107954;1257;71600;-80
2023/07/22 05:59:51;;;;;;;3.80;2.50;;;;;;;20.00;72.95;100345.41;108044;1257;71417;-79
2023/07/22 06:02:41;;;;;;;2.90;2.20;;;;;;;20.00;72.94;100350.26;107947;1257;62315;-81
2023/07/22 06:05:08;;;;;;;5.00;2.70;;;;;;;19.99;72.81;100352.94;107862;1261;60330;-83
2023/07/22 06:07:36;;;;;;;3.70;2.30;;;;;;;20.00;72.82;100357.02;107982;1257;73828;-82
2023/07/22 06:10:08;;;;;;;4.10;2.10;;;;;;;20.01;72.86;100353.05;108011;1257;72740;-81
2023/07/22 06:12:41;;;;;;;3.40;2.30;;;;;;;20.01;72.83;100358.84;107723;1256;73789;-82
2023/07/22 06:15:11;;;;;;;4.30;2.40;;;;;;;20.01;72.90;100359.23;107923;1257;60580;-80
2023/07/22 06:17:39;;;;;;;4.10;2.70;;;;;;;20.00;72.94;100367.45;107980;1257;60355;-80
2023/07/22 06:20:07;;;;;;;4.40;2.40;;;;;;;19.99;73.20;100370.84;107957;1257;73927;-80
2023/07/22 06:22:34;;;;;;;4.00;2.50;;;;;;;20.00;73.57;100369.17;108025;1260;72007;-82
2023/07/22 06:25:01;;;;;;;5.00;2.50;;;;;;;19.98;73.83;100366.91;108021;1256;73053;-82
2023/07/22 06:27:28;;;;;;;5.10;2.70;;;;;;;19.90;74.46;100374.21;107989;1257;61785;-81
2023/07/22 06:29:55;;;;;;;4.20;2.40;;;;;;;19.85;74.75;100373.91;107974;1257;60315;-81
2023/07/22 06:32:25;;;;;;;3.70;2.30;;;;;;;19.83;75.32;100370.81;108000;1258;73796;-80
2023/07/22 06:34:52;;;;;;;5.60;2.50;;;;;;;19.81;75.64;100376.85;107875;1262;71636;-82
2023/07/22 06:37:19;;;;;;;6.80;3.00;;;;;;;19.79;75.95;100385.59;107934;1257;72746;-83
2023/07/22 06:39:45;;;;;;;3.50;2.30;;;;;;;19.78;76.19;100389.98;107988;1257;63294;-81
2023/07/22 06:42:12;;;;;;;4.50;2.60;;;;;;;19.78;76.65;100389.98;107993;1257;60309;-81
2023/07/22 06:44:39;;;;;;;5.20;3.00;;;;;;;19.76;76.96;100392.42;108085;1257;73908;-81
2023/07/22 06:47:06;;;;;;;6.90;2.90;;;;;;;19.76;77.16;100393.34;108000;1257;72636;-81
2023/07/22 06:49:34;;;;;;;3.90;2.50;;;;;;;19.77;77.33;100394.94;107979;1259;72772;-81
2023/07/22 06:52:01;;;;;;;5.40;2.60;;;;;;;19.77;77.16;100395.48;108005;1257;60468;-83
2023/07/22 06:54:29;;;;;;;4.10;2.70;;;;;;;19.78;77.13;100395.14;108031;1257;60564;-81
2023/07/22 06:56:56;;;;;;;4.90;2.80;;;;;;;19.79;77.01;100390.76;107972;1255;73654;-79
2023/07/22 06:59:26;;;;;;;4.20;2.50;;;;;;;19.78;76.90;100396.44;107959;1257;72657;-80
2023/07/22 07:01:56;;;;;;;5.20;2.30;;;;;;;19.77;76.77;100399.95;107973;1257;71951;-81
2023/07/22 07:04:25;;;;;;;6.40;2.40;;;;;;;19.76;76.70;100400.08;108008;1257;61766;-80
2023/07/22 07:06:54;;;;;;;3.00;2.40;;;;;;;19.77;76.61;100399.17;107991;1259;60313;-81
2023/07/22 07:09:22;;;;;;;4.80;2.70;;;;;;;19.76;76.60;100397.23;108041;1258;73988;-83
2023/07/22 07:11:57;;;;;;;5.10;2.70;;;;;;;19.76;76.60;100397.91;107951;1256;72936;-80
2023/07/22 07:14:24;;;;;;;3.80;2.40;;;;;;;19.75;76.86;100397.19;108011;1259;72675;-82
2023/07/22 07:16:54;;;;;;;7.00;2.70;;;;;;;19.77;77.10;100391.14;107989;1257;60839;-84
2023/07/22 07:19:20;;;;;;;4.30;2.60;;;;;;;19.79;77.18;100382.70;108015;1256;60113;-81
2023/07/22 07:21:47;;;;;;;4.70;2.80;;;;;;;19.77;77.35;100380.44;108053;1257;73879;-82
2023/07/22 07:24:14;;;;;;;3.70;2.70;;;;;;;19.74;77.44;100382.36;108030;1258;72563;-80
2023/07/22 07:26:42;;;;;;;3.70;2.50;;;;;;;19.71;77.68;100384.63;107883;1260;72663;-80
2023/07/22 07:29:09;;;;;;;4.60;3.00;;;;;;;19.70;77.95;100392.30;107956;1257;62619;-81
2023/07/22 07:31:37;;;;;;;6.20;2.80;;;;;;;19.71;78.33;100386.80;107989;1256;60332;-82
2023/07/22 07:34:06;;;;;;;5.40;2.80;;;;;;;19.72;78.48;100385.77;108033;1257;73798;-82
2023/07/22 07:36:34;;;;;;;5.30;2.70;;;;;;;19.69;78.57;100387.11;107957;1256;72880;-82
2023/07/22 07:39:01;;;;;;;3.80;2.60;;;;;;;19.66;78.64;100385.02;107876;1256;72715;-84
2023/07/22 07:41:30;;;;;;;4.40;2.80;;;;;;;19.65;78.88;100375.88;107837;1260;61850;-81
2023/07/22 07:43:57;;;;;;;5.80;2.60;;;;;;;19.65;78.68;100374.86;107897;1260;60398;-82
2023/07/22 07:46:26;;;;;;;4.10;2.50;;;;;;;19.67;78.76;100374.36;107763;1262;73552;-83
2023/07/22 07:48:56;;;;;;;3.60;2.70;;;;;;;19.67;78.82;100371.79;108017;1258;72617;-81
2023/07/22 07:51:27;;;;;;;4.40;2.60;;;;;;;19.67;78.83;100374.23;107864;1256;71330;-82
2023/07/22 07:53:54;;;;;;;5.00;2.60;;;;;;;19.65;79.01;100370.20;108000;1260;60540;-82
2023/07/22 07:56:22;;;;;;;3.60;2.80;;;;;;;19.64;78.89;100369.57;108041;1258;60524;-82
2023/07/22 07:58:50;;;;;;;3.90;2.70;;;;;;;19.65;78.97;100364.50;107982;1256;74980;-83
2023/07/22 08:01:17;;;;;;;6.20;2.90;;;;;;;19.62;78.88;100365.77;108032;1257;72833;-82
2023/07/22 08:03:49;;;;;;;;;;;;;;;19.53;78.93;100353.81;108054;1257;71692;-82
2023/07/22 08:06:16;;;;;;;3.90;2.60;;;;;;;19.40;79.21;100354.35;108041;1257;61912;-82
2023/07/22 08:08:46;;;;;;;6.00;3.20;;;;;;;19.29;79.87;100355.38;107958;1258;61417;-83
2023/07/22 08:11:14;;;;;;;5.60;2.80;;;;;;;19.23;80.37;100352.27;107995;1256;72626;-85
2023/07/22 08:13:42;;;;;;;4.10;2.50;;;;;;;19.19;80.69;100348.38;107914;1258;74079;-82
2023/07/22 08:16:11;;;;;;;4.10;2.70;;;;;;;19.15;81.13;100344.49;107990;1258;72514;-83
2023/07/22 08:18:39;;;;;;;5.40;2.80;;;;;;;19.10;81.57;100345.80;107968;1260;61909;-83
2023/07/22 08:21:07;;;;;;;4.70;3.00;;;;;;;19.07;81.96;100347.23;108016;1256;60486;-84
2023/07/22 08:23:35;;;;;;;4.50;2.70;;;;;;;19.08;82.42;100352.46;107978;1256;74004;-83
2023/07/22 08:26:05;;;;;;;3.50;2.60;;;;;;;19.12;82.73;100351.17;108053;1255;71588;-82
2023/07/22 08:28:33;;;;;;;3.70;3.00;;;;;;;19.15;82.87;100340.44;107996;1260;72720;-84
2023/07/22 08:31:02;;;;;;;4.30;2.90;;;;;;;19.18;83.02;100338.91;108051;1256;61865;-86
2023/07/22 08:33:29;;;;;;;3.40;2.60;;;;;;;19.18;82.98;100340.19;107976;1255;60412;-84
2023/07/22 08:36:08;;;;;;;3.40;2.40;;;;;;;19.14;83.07;100333.25;107990;1260;73921;-81
2023/07/22 08:38:35;;;;;;;3.90;2.90;;;;;;;19.11;83.24;100332.27;108013;1258;71474;-83
2023/07/22 08:41:02;;;;;;;3.90;2.70;;;;;;;19.09;83.43;100324.11;108016;1260;72684;-82
2023/07/22 08:43:30;;;;;;;3.90;2.80;;;;;;;19.03;83.39;100325.48;107932;1258;62718;-83
2023/07/22 08:45:59;;;;;;;4.80;2.60;;;;;;;18.99;83.88;100324.36;107978;1257;60126;-81
2023/07/22 08:48:34;;;;;;;3.90;2.80;;;;;;;18.95;84.19;100325.84;107976;1258;74063;-82
2023/07/22 08:51:04;;;;;;;5.00;2.90;;;;;;;18.93;84.48;100322.34;107846;1258;72916;-82
2023/07/22 08:53:33;;;;;;;4.80;2.80;;;;;;;18.92;84.73;100326.75;107973;1258;70430;-81
2023/07/22 08:56:02;;;;;;;3.90;2.70;;;;;;;18.90;84.74;100327.16;107868;1257;61819;-80
2023/07/22 08:58:30;;;;;;;4.00;2.90;;;;;;;18.91;84.74;100325.96;107995;1258;60318;-82
2023/07/22 09:00:57;;;;;;;3.10;2.30;;;;;;;18.96;84.86;100326.88;108032;1258;73991;-82
2023/07/22 09:03:24;;;;;;;4.20;2.70;;;;;;;19.00;84.81;100328.80;107800;1257;71578;-81
2023/07/22 09:05:55;;;;;;;5.30;3.20;;;;;;;18.97;84.82;100326.59;107825;1258;71295;-81
2023/07/22 09:08:22;;;;;;;4.40;3.10;;;;;;;18.93;84.78;100325.52;107771;1257;60721;-82
2023/07/22 09:10:51;;;;;;;3.70;2.80;;;;;;;18.90;84.85;100324.59;107971;1257;60392;-82
2023/07/22 09:13:18;;;;;;;4.10;2.90;;;;;;;18.86;85.03;100330.98;108013;1256;73775;-81
2023/07/22 09:15:47;;;;;;;4.10;2.90;;;;;;;18.87;85.07;100331.12;108035;1257;72725;-82
2023/07/22 09:18:15;;;;;;;4.10;2.90;;;;;;;18.91;85.26;100332.56;107933;1256;72502;-82
2023/07/22 09:20:42;;;;;;;4.90;2.90;;;;;;;18.91;85.33;100335.09;108004;1256;61697;-81
2023/07/22 09:23:10;;;;;;;3.60;2.80;;;;;;;18.93;85.29;100336.51;107993;1260;60511;-81
2023/07/22 09:25:42;;;;;;;4.50;2.70;;;;;;;18.96;85.25;100333.89;108045;1257;73955;-81
2023/07/22 09:28:09;;;;;;;4.80;2.80;;;;;;;18.95;85.12;100324.54;107983;1256;72743;-80
2023/07/22 09:30:38;;;;;;;5.40;3.00;;;;;;;18.93;84.98;100321.88;107957;1257;73192;-81
2023/07/22 09:33:07;;;;;;;3.60;2.80;;;;;;;18.89;85.03;100322.30;108054;1257;62103;-79
2023/07/22 09:35:44;;;;;;;4.30;2.90;;;;;;;18.86;85.16;100312.82;108099;1257;61783;-81
2023/07/22 09:38:17;;;;;;;4.60;3.00;;;;;;;18.84;85.15;100309.19;107928;1256;72570;-79
2023/07/22 09:40:45;;;;;;;4.90;2.90;;;;;;;18.79;85.28;100309.88;107801;1257;71704;-79
2023/07/22 09:43:12;;;;;;;3.50;2.70;;;;;;;18.74;85.16;100306.25;107991;1259;72462;-81
2023/07/22 09:45:39;;;;;;;4.00;2.50;;;;;;;18.68;85.05;100299.46;107991;1256;62062;-80
2023/07/22 09:48:06;;;;;;;4.60;3.00;;;;;;;18.62;85.26;100299.09;107791;1257;60684;-81
2023/07/22 09:50:35;;;;;;;4.90;2.90;;;;;;;18.56;85.42;100287.30;107797;1257;73923;-80
2023/07/22 09:53:03;;;;;;;4.40;2.80;;;;;;;18.49;85.68;100274.08;107756;1257;72924;-80
2023/07/22 09:55:31;;;;;;;3.30;2.50;;;;;;;18.48;86.02;100263.36;107984;1260;72499;-82
2023/07/22 09:58:03;;;;;;;4.80;3.10;;;;;;;18.42;86.55;100248.50;107839;1257;61997;-83
2023/07/22 10:00:31;;;;;;;;;;;;;;;18.35;86.91;100247.32;107973;1260;60094;-82
2023/07/22 10:03:04;;;;;;;4.90;3.10;;;;;;;18.35;87.56;100243.95;108009;1257;72613;-82
2023/07/22 10:05:38;;;;;;;4.40;3.10;;;;;;;18.38;87.96;100235.27;108065;1257;72545;-82
2023/07/22 10:08:05;;;;;;;3.90;2.80;;;;;;;18.40;88.16;100230.63;108085;1257;72691;-82
2023/07/22 10:10:38;;;;;;;4.00;2.80;;;;;;;18.39;88.37;100228.04;108057;1257;60419;-80
2023/07/22 10:13:09;;;;;;;3.90;2.70;;;;;;;18.40;88.34;100229.48;107975;1257;60591;-79
2023/07/22 10:15:37;;;;;;;4.60;2.90;;;;;;;18.42;88.43;100226.92;107854;1256;73838;-80
2023/07/22 10:18:06;;;;;;;3.90;2.90;;;;;;;18.43;88.53;100219.96;107858;1256;72534;-84
2023/07/22 10:20:36;;;;;;;3.90;2.80;;;;;;;18.44;88.61;100215.33;108029;1260;70744;-85
2023/07/22 10:23:04;;;;;;;5.10;3.10;;;;;;;18.49;88.76;100209.83;107804;1257;61707;-83
2023/07/22 10:25:31;;;;;;;5.10;3.00;;;;;;;18.57;88.79;100200.02;107989;1257;60290;-84
2023/07/22 10:27:59;;;;;;;6.10;3.30;;;;;;;18.60;88.70;100199.54;107983;1257;74997;-82
2023/07/22 10:30:27;;;;;;;5.10;3.10;;;;;;;18.59;88.46;100198.17;108032;1257;72555;-83
2023/07/22 10:32:55;;;;;;;5.40;3.20;;;;;;;18.57;88.60;100195.48;107903;1260;73904;-84
2023/07/22 10:35:31;;;;;;;5.00;3.30;;;;;;;18.56;88.72;100194.41;107981;1257;62053;-83
2023/07/22 10:38:16;;;;;;;4.60;3.20;;;;;;;18.59;88.74;100197.70;107895;1257;246761;-85
2023/07/22 10:40:49;;;;;;;4.50;3.10;;;;;;;18.61;88.58;100190.92;107780;1257;74028;-83
2023/07/22 10:43:17;;;;;;;4.30;3.10;;;;;;;18.60;88.38;100188.40;108027;1260;72675;-81
2023/07/22 10:45:52;;;;;;;3.30;2.70;;;;;;;18.56;88.39;100191.87;108018;1256;71363;-82
2023/07/22 10:48:26;;;;;;;2.70;2.20;;;;;;;18.50;88.41;100188.59;107919;1257;61964;-81
2023/07/22 10:50:58;;;;;;;5.00;2.70;;;;;;;18.47;88.39;100195.73;107960;1258;60572;-81
2023/07/22 10:53:29;;;;;;;3.70;2.70;;;;;;;18.49;88.26;100191.27;107962;1257;72464;-79
2023/07/22 10:56:05;;;;;;;4.50;2.40;;;;;;;18.48;88.29;100183.26;107992;1258;72751;-82
2023/07/22 10:58:46;;;;;;;3.60;3.00;;;;;;;18.42;88.15;100179.42;107937;1257;72689;-81
2023/07/22 11:01:27;;;;;;;4.60;2.70;;;;;;;18.38;88.23;100178.16;108011;1256;61103;-83
2023/07/22 11:04:08;;;;;;;3.10;2.60;;;;;;;18.36;88.35;100183.14;108020;1257;60460;-80
2023/07/22 11:06:35;;;;;;;4.80;2.40;;;;;;;18.35;88.39;100177.94;107969;1257;73745;-83
2023/07/22 11:09:03;;;;;;;3.40;2.60;;;;;;;18.34;88.42;100183.58;108021;1256;72812;-81
2023/07/22 11:11:38;;;;;;;3.50;2.50;;;;;;;18.39;88.54;100189.02;107999;1257;73133;-81
2023/07/22 11:14:21;;;;;;;3.50;2.70;;;;;;;18.43;88.68;100177.77;107971;1256;62296;-80
2023/07/22 11:16:48;;;;;;;3.70;2.70;;;;;;;18.40;88.47;100178.20;107920;1258;60341;-80
2023/07/22 11:19:16;;;;;;;5.40;2.90;;;;;;;18.34;88.42;100186.94;107872;1256;73875;-81
2023/07/22 11:21:44;;;;;;;3.80;2.80;;;;;;;18.33;88.54;100183.95;107977;1257;72747;-81
2023/07/22 11:24:11;;;;;;;4.30;2.40;;;;;;;18.34;88.71;100181.86;107982;1258;72493;-83